sensor_id;sensor_type;location;lat;lon;timestamp;temperature;humidity
3940;DHT22;1984;48.312;9.244;2024-01-11T00:00:14;-6.60;99.90
3940;DHT22;1984;48.312;9.244;2024-01-11T00:02:40;-6.50;99.90
3940;DHT22;1984;48.312;9.244;2024-01-11T00:05:06;-6.50;99.90
3940;DHT22;1984;48.312;9.244;2024-01-11T00:07:32;-6.50;99.90
3940;DHT22;1984;48.312;9.244;2024-01-11T00:09:57;-6.40;99.90
3940;DHT22;1984;48.312;9.244;2024-01-11T00:12:23;-6.50;99.90
3940;DHT22;1984;48.312;9.244;2024-01-11T00:14:48;-6.60;99.90
3940;DHT22;1984;48.312;9.244;2024-01-11T00:17:14;-6.70;99.90
3940;DHT22;1984;48.312;9.244;2024-01-11T00:19:41;-6.80;99.90
3940;DHT22;1984;48.312;9.244;2024-01-11T00:22:06;-6.80;99.90
3940;DHT22;1984;48.312;9.244;2024-01-11T00:24:32;-6.90;99.90
3940;DHT22;1984;48.312;9.244;2024-01-11T00:26:57;-6.90;99.90
3940;DHT22;1984;48.312;9.244;2024-01-11T00:29:23;-6.90;99.90
3940;DHT22;1984;48.312;9.244;2024-01-11T00:31:48;-6.90;99.90
3940;DHT22;1984;48.312;9.244;2024-01-11T00:34:14;-6.90;99.90
3940;DHT22;1984;48.312;9.244;2024-01-11T00:36:39;-6.90;99.90
3940;DHT22;1984;48.312;9.244;2024-01-11T00:39:05;-6.90;99.90
3940;DHT22;1984;48.312;9.244;2024-01-11T00:41:30;-6.90;99.90
3940;DHT22;1984;48.312;9.244;2024-01-11T00:43:56;-6.90;99.90
3940;DHT22;1984;48.312;9.244;2024-01-11T00:46:21;-7.00;99.90
3940;DHT22;1984;48.312;9.244;2024-01-11T00:48:47;-7.00;99.90
3940;DHT22;1984;48.312;9.244;2024-01-11T00:51:13;-6.90;99.90
3940;DHT22;1984;48.312;9.244;2024-01-11T00:53:38;-6.90;99.90
3940;DHT22;1984;48.312;9.244;2024-01-11T00:56:04;-6.90;99.90
3940;DHT22;1984;48.312;9.244;2024-01-11T00:58:29;-6.90;99.90
3940;DHT22;1984;48.312;9.244;2024-01-11T01:00:55;-6.90;99.90
3940;DHT22;1984;48.312;9.244;2024-01-11T01:03:23;-6.90;99.90
3940;DHT22;1984;48.312;9.244;2024-01-11T01:05:49;-6.90;99.90
3940;DHT22;1984;48.312;9.244;2024-01-11T01:08:15;-6.90;99.90
3940;DHT22;1984;48.312;9.244;2024-01-11T01:10:40;-6.90;99.90
3940;DHT22;1984;48.312;9.244;2024-01-11T01:13:06;-6.90;99.90
3940;DHT22;1984;48.312;9.244;2024-01-11T01:15:31;-6.90;99.90
3940;DHT22;1984;48.312;9.244;2024-01-11T01:17:57;-6.90;99.90
3940;DHT22;1984;48.312;9.244;2024-01-11T01:20:23;-7.00;99.90
3940;DHT22;1984;48.312;9.244;2024-01-11T01:22:49;-7.00;99.90
3940;DHT22;1984;48.312;9.244;2024-01-11T01:25:15;-6.90;99.90
3940;DHT22;1984;48.312;9.244;2024-01-11T01:27:40;-7.00;99.90
3940;DHT22;1984;48.312;9.244;2024-01-11T01:30:06;-7.00;99.90
3940;DHT22;1984;48.312;9.244;2024-01-11T01:32:32;-7.10;99.90
3940;DHT22;1984;48.312;9.244;2024-01-11T01:34:57;-7.10;99.90
3940;DHT22;1984;48.312;9.244;2024-01-11T01:37:23;-7.10;99.90
3940;DHT22;1984;48.312;9.244;2024-01-11T01:39:48;-7.20;99.90
3940;DHT22;1984;48.312;9.244;2024-01-11T01:42:14;-7.20;99.90
3940;DHT22;1984;48.312;9.244;2024-01-11T01:44:40;-7.20;99.90
3940;DHT22;1984;48.312;9.244;2024-01-11T01:47:07;-7.20;99.90
3940;DHT22;1984;48.312;9.244;2024-01-11T01:49:34;-7.20;99.90
3940;DHT22;1984;48.312;9.244;2024-01-11T01:52:00;-7.20;99.90
3940;DHT22;1984;48.312;9.244;2024-01-11T01:54:27;-7.30;99.90
3940;DHT22;1984;48.312;9.244;2024-01-11T01:56:53;-7.30;99.90
3940;DHT22;1984;48.312;9.244;2024-01-11T01:59:19;-7.30;99.90
3940;DHT22;1984;48.312;9.244;2024-01-11T02:01:45;-7.20;99.90
3940;DHT22;1984;48.312;9.244;2024-01-11T02:04:11;-7.20;99.90
3940;DHT22;1984;48.312;9.244;2024-01-11T02:06:37;-7.20;99.90
3940;DHT22;1984;48.312;9.244;2024-01-11T02:09:03;-7.20;99.90
3940;DHT22;1984;48.312;9.244;2024-01-11T02:11:30;-7.20;99.90
3940;DHT22;1984;48.312;9.244;2024-01-11T02:13:55;-7.20;99.90
3940;DHT22;1984;48.312;9.244;2024-01-11T02:16:23;-7.20;99.90
3940;DHT22;1984;48.312;9.244;2024-01-11T02:18:49;-7.20;99.90
3940;DHT22;1984;48.312;9.244;2024-01-11T02:21:15;-7.20;99.90
3940;DHT22;1984;48.312;9.244;2024-01-11T02:24:05;-7.20;99.90
3940;DHT22;1984;48.312;9.244;2024-01-11T02:26:31;-7.20;99.90
3940;DHT22;1984;48.312;9.244;2024-01-11T02:28:57;-7.10;99.90
3940;DHT22;1984;48.312;9.244;2024-01-11T02:31:23;-7.20;99.90
3940;DHT22;1984;48.312;9.244;2024-01-11T02:33:49;-7.20;99.90
3940;DHT22;1984;48.312;9.244;2024-01-11T02:36:15;-7.20;99.90
3940;DHT22;1984;48.312;9.244;2024-01-11T02:38:41;-7.20;99.90
3940;DHT22;1984;48.312;9.244;2024-01-11T02:41:07;-7.10;99.90
3940;DHT22;1984;48.312;9.244;2024-01-11T02:43:33;-7.10;99.90
3940;DHT22;1984;48.312;9.244;2024-01-11T02:46:01;-7.20;99.90
3940;DHT22;1984;48.312;9.244;2024-01-11T02:48:30;-7.20;99.90
3940;DHT22;1984;48.312;9.244;2024-01-11T02:50:57;-7.20;99.90
3940;DHT22;1984;48.312;9.244;2024-01-11T02:53:23;-7.20;99.90
3940;DHT22;1984;48.312;9.244;2024-01-11T02:55:50;-7.20;99.90
3940;DHT22;1984;48.312;9.244;2024-01-11T02:58:15;-7.30;99.90
3940;DHT22;1984;48.312;9.244;2024-01-11T03:00:41;-7.30;99.90
3940;DHT22;1984;48.312;9.244;2024-01-11T03:03:06;-7.30;99.90
3940;DHT22;1984;48.312;9.244;2024-01-11T03:05:32;-7.30;99.90
3940;DHT22;1984;48.312;9.244;2024-01-11T03:07:57;-7.40;99.90
3940;DHT22;1984;48.312;9.244;2024-01-11T03:10:23;-7.40;99.90
3940;DHT22;1984;48.312;9.244;2024-01-11T03:12:49;-7.40;99.90
3940;DHT22;1984;48.312;9.244;2024-01-11T03:15:15;-7.40;99.90
3940;DHT22;1984;48.312;9.244;2024-01-11T03:17:40;-7.40;99.90
3940;DHT22;1984;48.312;9.244;2024-01-11T03:20:06;-7.40;99.90
3940;DHT22;1984;48.312;9.244;2024-01-11T03:22:32;-7.40;99.90
3940;DHT22;1984;48.312;9.244;2024-01-11T03:24:58;-7.40;99.90
3940;DHT22;1984;48.312;9.244;2024-01-11T03:27:24;-7.50;99.90
3940;DHT22;1984;48.312;9.244;2024-01-11T03:29:49;-7.50;99.90
3940;DHT22;1984;48.312;9.244;2024-01-11T03:32:15;-7.40;99.90
3940;DHT22;1984;48.312;9.244;2024-01-11T03:34:41;-7.40;99.90
3940;DHT22;1984;48.312;9.244;2024-01-11T03:37:06;-7.50;99.90
3940;DHT22;1984;48.312;9.244;2024-01-11T03:39:33;-7.50;99.90
3940;DHT22;1984;48.312;9.244;2024-01-11T03:41:58;-7.60;99.90
3940;DHT22;1984;48.312;9.244;2024-01-11T03:44:24;-7.70;99.90
3940;DHT22;1984;48.312;9.244;2024-01-11T03:46:49;-7.70;99.90
3940;DHT22;1984;48.312;9.244;2024-01-11T03:49:15;-7.80;99.90
3940;DHT22;1984;48.312;9.244;2024-01-11T03:51:40;-7.80;99.90
3940;DHT22;1984;48.312;9.244;2024-01-11T03:54:06;-7.80;99.90
3940;DHT22;1984;48.312;9.244;2024-01-11T03:56:31;-7.80;99.90
3940;DHT22;1984;48.312;9.244;2024-01-11T03:58:57;-7.90;99.90
3940;DHT22;1984;48.312;9.244;2024-01-11T04:01:23;-7.90;99.90
3940;DHT22;1984;48.312;9.244;2024-01-11T04:03:48;-7.80;99.90
3940;DHT22;1984;48.312;9.244;2024-01-11T04:06:21;-7.70;99.90
3940;DHT22;1984;48.312;9.244;2024-01-11T04:08:48;-7.70;99.90
3940;DHT22;1984;48.312;9.244;2024-01-11T04:11:13;-7.70;99.90
3940;DHT22;1984;48.312;9.244;2024-01-11T04:13:39;-7.80;99.90
3940;DHT22;1984;48.312;9.244;2024-01-11T04:16:05;-7.80;99.90
3940;DHT22;1984;48.312;9.244;2024-01-11T04:18:32;-7.70;99.90
3940;DHT22;1984;48.312;9.244;2024-01-11T04:20:57;-7.70;99.90
3940;DHT22;1984;48.312;9.244;2024-01-11T04:23:23;-7.70;99.90
3940;DHT22;1984;48.312;9.244;2024-01-11T04:25:48;-7.70;99.90
3940;DHT22;1984;48.312;9.244;2024-01-11T04:28:15;-7.70;99.90
3940;DHT22;1984;48.312;9.244;2024-01-11T04:30:41;-7.70;99.90
3940;DHT22;1984;48.312;9.244;2024-01-11T04:33:07;-7.70;99.90
3940;DHT22;1984;48.312;9.244;2024-01-11T04:35:32;-7.70;99.90
3940;DHT22;1984;48.312;9.244;2024-01-11T04:37:58;-7.80;99.90
3940;DHT22;1984;48.312;9.244;2024-01-11T04:40:23;-7.80;99.90
3940;DHT22;1984;48.312;9.244;2024-01-11T04:42:49;-7.90;99.90
3940;DHT22;1984;48.312;9.244;2024-01-11T04:45:15;-7.90;99.90
3940;DHT22;1984;48.312;9.244;2024-01-11T04:47:40;-8.00;99.90
3940;DHT22;1984;48.312;9.244;2024-01-11T04:50:07;-7.90;99.90
3940;DHT22;1984;48.312;9.244;2024-01-11T04:52:32;-7.90;99.90
3940;DHT22;1984;48.312;9.244;2024-01-11T04:54:58;-7.90;99.90
3940;DHT22;1984;48.312;9.244;2024-01-11T04:57:23;-7.90;99.90
3940;DHT22;1984;48.312;9.244;2024-01-11T04:59:49;-7.80;99.90
3940;DHT22;1984;48.312;9.244;2024-01-11T05:02:15;-7.80;99.90
3940;DHT22;1984;48.312;9.244;2024-01-11T05:04:40;-7.80;99.90
3940;DHT22;1984;48.312;9.244;2024-01-11T05:07:06;-7.80;99.90
3940;DHT22;1984;48.312;9.244;2024-01-11T05:09:31;-7.70;99.90
3940;DHT22;1984;48.312;9.244;2024-01-11T05:11:57;-7.70;99.90
3940;DHT22;1984;48.312;9.244;2024-01-11T05:14:22;-7.80;99.90
3940;DHT22;1984;48.312;9.244;2024-01-11T05:16:48;-7.80;99.90
3940;DHT22;1984;48.312;9.244;2024-01-11T05:19:13;-7.80;99.90
3940;DHT22;1984;48.312;9.244;2024-01-11T05:21:39;-7.70;99.90
3940;DHT22;1984;48.312;9.244;2024-01-11T05:24:05;-7.80;99.90
3940;DHT22;1984;48.312;9.244;2024-01-11T05:26:31;-7.80;99.90
3940;DHT22;1984;48.312;9.244;2024-01-11T05:28:57;-7.80;99.90
3940;DHT22;1984;48.312;9.244;2024-01-11T05:31:22;-7.80;99.90
3940;DHT22;1984;48.312;9.244;2024-01-11T05:33:48;-7.70;99.90
3940;DHT22;1984;48.312;9.244;2024-01-11T05:36:13;-7.70;99.90
3940;DHT22;1984;48.312;9.244;2024-01-11T05:38:39;-7.80;99.90
3940;DHT22;1984;48.312;9.244;2024-01-11T05:41:08;-7.80;99.90
3940;DHT22;1984;48.312;9.244;2024-01-11T05:43:33;-7.90;99.90
3940;DHT22;1984;48.312;9.244;2024-01-11T05:45:59;-7.90;99.90
3940;DHT22;1984;48.312;9.244;2024-01-11T05:48:24;-7.90;99.90
3940;DHT22;1984;48.312;9.244;2024-01-11T05:50:50;-8.00;99.90
3940;DHT22;1984;48.312;9.244;2024-01-11T05:53:15;-8.00;99.90
3940;DHT22;1984;48.312;9.244;2024-01-11T05:55:42;-8.00;99.90
3940;DHT22;1984;48.312;9.244;2024-01-11T05:58:08;-8.00;99.90
3940;DHT22;1984;48.312;9.244;2024-01-11T06:00:33;-8.10;99.90
3940;DHT22;1984;48.312;9.244;2024-01-11T06:02:59;-8.10;99.90
3940;DHT22;1984;48.312;9.244;2024-01-11T06:05:25;-8.10;99.90
3940;DHT22;1984;48.312;9.244;2024-01-11T06:07:51;-8.10;99.90
3940;DHT22;1984;48.312;9.244;2024-01-11T06:10:16;-8.00;99.90
3940;DHT22;1984;48.312;9.244;2024-01-11T06:12:42;-8.00;99.90
3940;DHT22;1984;48.312;9.244;2024-01-11T06:15:08;-8.00;99.90
3940;DHT22;1984;48.312;9.244;2024-01-11T06:17:35;-8.00;99.90
3940;DHT22;1984;48.312;9.244;2024-01-11T06:20:00;-8.00;99.90
3940;DHT22;1984;48.312;9.244;2024-01-11T06:22:26;-8.00;99.90
3940;DHT22;1984;48.312;9.244;2024-01-11T06:24:51;-8.10;99.90
3940;DHT22;1984;48.312;9.244;2024-01-11T06:27:17;-8.10;99.90
3940;DHT22;1984;48.312;9.244;2024-01-11T06:29:42;-8.20;99.90
3940;DHT22;1984;48.312;9.244;2024-01-11T06:32:08;-8.20;99.90
3940;DHT22;1984;48.312;9.244;2024-01-11T06:34:35;-8.20;99.90
3940;DHT22;1984;48.312;9.244;2024-01-11T06:37:01;-8.20;99.90
3940;DHT22;1984;48.312;9.244;2024-01-11T06:39:28;-8.10;99.90
3940;DHT22;1984;48.312;9.244;2024-01-11T06:41:53;-8.20;99.90
3940;DHT22;1984;48.312;9.244;2024-01-11T06:44:19;-8.20;99.90
3940;DHT22;1984;48.312;9.244;2024-01-11T06:46:45;-8.20;99.90
3940;DHT22;1984;48.312;9.244;2024-01-11T06:49:10;-8.20;99.90
3940;DHT22;1984;48.312;9.244;2024-01-11T06:51:37;-8.20;99.90
3940;DHT22;1984;48.312;9.244;2024-01-11T06:54:02;-8.20;99.90
3940;DHT22;1984;48.312;9.244;2024-01-11T06:56:28;-8.20;99.90
3940;DHT22;1984;48.312;9.244;2024-01-11T06:58:54;-8.10;99.90
3940;DHT22;1984;48.312;9.244;2024-01-11T07:01:20;-8.10;99.90
3940;DHT22;1984;48.312;9.244;2024-01-11T07:03:46;-8.10;99.90
3940;DHT22;1984;48.312;9.244;2024-01-11T07:06:12;-8.10;99.90
3940;DHT22;1984;48.312;9.244;2024-01-11T07:08:37;-8.10;99.90
3940;DHT22;1984;48.312;9.244;2024-01-11T07:11:03;-8.00;99.90
3940;DHT22;1984;48.312;9.244;2024-01-11T07:13:29;-8.00;99.90
3940;DHT22;1984;48.312;9.244;2024-01-11T07:15:56;-8.00;99.90
3940;DHT22;1984;48.312;9.244;2024-01-11T07:18:23;-7.90;99.90
3940;DHT22;1984;48.312;9.244;2024-01-11T07:20:50;-7.90;99.90
3940;DHT22;1984;48.312;9.244;2024-01-11T07:23:16;-7.80;99.90
3940;DHT22;1984;48.312;9.244;2024-01-11T07:25:42;-7.70;99.90
3940;DHT22;1984;48.312;9.244;2024-01-11T07:28:08;-7.70;99.90
3940;DHT22;1984;48.312;9.244;2024-01-11T07:30:34;-7.70;99.90
3940;DHT22;1984;48.312;9.244;2024-01-11T07:33:00;-7.70;99.90
3940;DHT22;1984;48.312;9.244;2024-01-11T07:35:25;-7.70;99.90
3940;DHT22;1984;48.312;9.244;2024-01-11T07:37:51;-7.70;99.90
3940;DHT22;1984;48.312;9.244;2024-01-11T07:40:16;-7.60;99.90
3940;DHT22;1984;48.312;9.244;2024-01-11T07:42:42;-7.60;99.90
3940;DHT22;1984;48.312;9.244;2024-01-11T07:45:09;-7.70;99.90
3940;DHT22;1984;48.312;9.244;2024-01-11T07:47:39;-7.70;99.90
3940;DHT22;1984;48.312;9.244;2024-01-11T07:50:06;-7.70;99.90
3940;DHT22;1984;48.312;9.244;2024-01-11T07:52:38;-7.70;99.90
3940;DHT22;1984;48.312;9.244;2024-01-11T07:55:06;-7.00;99.90
3940;DHT22;1984;48.312;9.244;2024-01-11T07:57:37;-5.70;99.90
3940;DHT22;1984;48.312;9.244;2024-01-11T08:00:04;-4.40;99.90
3940;DHT22;1984;48.312;9.244;2024-01-11T08:02:32;-3.30;99.90
3940;DHT22;1984;48.312;9.244;2024-01-11T08:04:57;-2.40;99.90
3940;DHT22;1984;48.312;9.244;2024-01-11T08:07:27;-1.70;99.90
3940;DHT22;1984;48.312;9.244;2024-01-11T08:09:53;-1.00;99.90
3940;DHT22;1984;48.312;9.244;2024-01-11T08:12:19;-0.40;99.90
3940;DHT22;1984;48.312;9.244;2024-01-11T08:14:44;0.20;99.90
3940;DHT22;1984;48.312;9.244;2024-01-11T08:17:12;0.70;99.90
3940;DHT22;1984;48.312;9.244;2024-01-11T08:19:39;1.10;99.90
3940;DHT22;1984;48.312;9.244;2024-01-11T08:22:05;1.50;99.90
3940;DHT22;1984;48.312;9.244;2024-01-11T08:24:31;2.00;99.90
3940;DHT22;1984;48.312;9.244;2024-01-11T08:26:56;2.40;99.90
3940;DHT22;1984;48.312;9.244;2024-01-11T08:29:23;2.70;99.90
3940;DHT22;1984;48.312;9.244;2024-01-11T08:31:48;2.80;99.90
3940;DHT22;1984;48.312;9.244;2024-01-11T08:34:14;3.10;99.90
3940;DHT22;1984;48.312;9.244;2024-01-11T08:36:39;3.40;99.90
3940;DHT22;1984;48.312;9.244;2024-01-11T08:39:05;3.70;99.90
3940;DHT22;1984;48.312;9.244;2024-01-11T08:41:31;4.10;99.90
3940;DHT22;1984;48.312;9.244;2024-01-11T08:43:57;4.50;99.50
3940;DHT22;1984;48.312;9.244;2024-01-11T08:46:26;4.50;98.90
3940;DHT22;1984;48.312;9.244;2024-01-11T08:48:53;4.50;99.10
3940;DHT22;1984;48.312;9.244;2024-01-11T08:51:19;4.70;98.90
3940;DHT22;1984;48.312;9.244;2024-01-11T08:53:44;4.70;99.30
3940;DHT22;1984;48.312;9.244;2024-01-11T08:56:10;5.00;99.00
3940;DHT22;1984;48.312;9.244;2024-01-11T08:58:35;5.20;98.30
3940;DHT22;1984;48.312;9.244;2024-01-11T09:01:02;5.40;98.30
3940;DHT22;1984;48.312;9.244;2024-01-11T09:03:28;5.70;97.60
3940;DHT22;1984;48.312;9.244;2024-01-11T09:05:54;6.10;97.50
3940;DHT22;1984;48.312;9.244;2024-01-11T09:08:23;6.40;97.40
3940;DHT22;1984;48.312;9.244;2024-01-11T09:10:48;6.70;97.50
3940;DHT22;1984;48.312;9.244;2024-01-11T09:13:14;6.90;97.00
3940;DHT22;1984;48.312;9.244;2024-01-11T09:15:41;7.00;97.00
3940;DHT22;1984;48.312;9.244;2024-01-11T09:18:07;7.30;96.70
3940;DHT22;1984;48.312;9.244;2024-01-11T09:20:32;7.30;96.70
3940;DHT22;1984;48.312;9.244;2024-01-11T09:22:59;7.50;97.20
3940;DHT22;1984;48.312;9.244;2024-01-11T09:25:24;7.90;96.80
3940;DHT22;1984;48.312;9.244;2024-01-11T09:27:50;8.20;96.70
3940;DHT22;1984;48.312;9.244;2024-01-11T09:30:15;8.50;96.50
3940;DHT22;1984;48.312;9.244;2024-01-11T09:32:41;8.30;96.90
3940;DHT22;1984;48.312;9.244;2024-01-11T09:35:06;8.60;96.40
3940;DHT22;1984;48.312;9.244;2024-01-11T09:37:32;8.70;96.10
3940;DHT22;1984;48.312;9.244;2024-01-11T09:39:58;8.80;96.00
3940;DHT22;1984;48.312;9.244;2024-01-11T09:42:26;8.90;96.20
3940;DHT22;1984;48.312;9.244;2024-01-11T09:44:53;9.20;95.80
3940;DHT22;1984;48.312;9.244;2024-01-11T09:47:21;9.50;96.10
3940;DHT22;1984;48.312;9.244;2024-01-11T09:49:49;9.80;96.00
3940;DHT22;1984;48.312;9.244;2024-01-11T09:52:20;10.00;96.60
3940;DHT22;1984;48.312;9.244;2024-01-11T09:54:47;10.00;96.90
3940;DHT22;1984;48.312;9.244;2024-01-11T09:57:14;10.00;96.90
3940;DHT22;1984;48.312;9.244;2024-01-11T09:59:42;10.00;97.10
3940;DHT22;1984;48.312;9.244;2024-01-11T10:02:10;10.40;97.10
3940;DHT22;1984;48.312;9.244;2024-01-11T10:04:36;10.80;96.80
3940;DHT22;1984;48.312;9.244;2024-01-11T10:07:04;11.20;96.20
3940;DHT22;1984;48.312;9.244;2024-01-11T10:09:31;11.10;95.50
3940;DHT22;1984;48.312;9.244;2024-01-11T10:11:56;11.20;96.10
3940;DHT22;1984;48.312;9.244;2024-01-11T10:14:22;11.20;95.80
3940;DHT22;1984;48.312;9.244;2024-01-11T10:16:48;11.00;96.00
3940;DHT22;1984;48.312;9.244;2024-01-11T10:19:13;11.10;96.40
3940;DHT22;1984;48.312;9.244;2024-01-11T10:21:41;11.40;95.90
3940;DHT22;1984;48.312;9.244;2024-01-11T10:24:07;11.70;95.00
3940;DHT22;1984;48.312;9.244;2024-01-11T10:26:33;11.60;95.00
3940;DHT22;1984;48.312;9.244;2024-01-11T10:29:00;11.70;95.70
3940;DHT22;1984;48.312;9.244;2024-01-11T10:31:28;11.70;94.60
3940;DHT22;1984;48.312;9.244;2024-01-11T10:33:54;11.90;94.60
3940;DHT22;1984;48.312;9.244;2024-01-11T10:36:20;12.20;94.80
3940;DHT22;1984;48.312;9.244;2024-01-11T10:38:47;12.40;94.60
3940;DHT22;1984;48.312;9.244;2024-01-11T10:41:13;12.40;93.80
3940;DHT22;1984;48.312;9.244;2024-01-11T10:43:44;12.80;93.10
3940;DHT22;1984;48.312;9.244;2024-01-11T10:46:12;12.60;93.50
3940;DHT22;1984;48.312;9.244;2024-01-11T10:48:41;12.50;92.90
3940;DHT22;1984;48.312;9.244;2024-01-11T10:51:12;11.90;93.20
3940;DHT22;1984;48.312;9.244;2024-01-11T10:53:45;11.90;93.60
3940;DHT22;1984;48.312;9.244;2024-01-11T10:56:16;11.90;93.10
3940;DHT22;1984;48.312;9.244;2024-01-11T10:58:43;11.70;93.10
3940;DHT22;1984;48.312;9.244;2024-01-11T11:01:11;10.70;93.50
3940;DHT22;1984;48.312;9.244;2024-01-11T11:03:37;10.30;94.40
3940;DHT22;1984;48.312;9.244;2024-01-11T11:06:05;9.90;94.80
3940;DHT22;1984;48.312;9.244;2024-01-11T11:08:32;9.40;95.20
3940;DHT22;1984;48.312;9.244;2024-01-11T11:10:59;8.90;96.10
3940;DHT22;1984;48.312;9.244;2024-01-11T11:13:26;8.40;96.40
3940;DHT22;1984;48.312;9.244;2024-01-11T11:15:53;8.00;97.30
3940;DHT22;1984;48.312;9.244;2024-01-11T11:18:19;7.60;98.30
3940;DHT22;1984;48.312;9.244;2024-01-11T11:20:46;7.50;98.80
3940;DHT22;1984;48.312;9.244;2024-01-11T11:23:15;7.30;98.90
3940;DHT22;1984;48.312;9.244;2024-01-11T11:25:44;7.10;98.90
3940;DHT22;1984;48.312;9.244;2024-01-11T11:28:13;6.90;99.60
3940;DHT22;1984;48.312;9.244;2024-01-11T11:30:44;6.70;99.20
3940;DHT22;1984;48.312;9.244;2024-01-11T11:33:15;6.20;99.90
3940;DHT22;1984;48.312;9.244;2024-01-11T11:35:41;5.90;99.90
3940;DHT22;1984;48.312;9.244;2024-01-11T11:38:08;5.50;99.90
3940;DHT22;1984;48.312;9.244;2024-01-11T11:40:36;5.40;99.90
3940;DHT22;1984;48.312;9.244;2024-01-11T11:43:05;5.30;99.90
3940;DHT22;1984;48.312;9.244;2024-01-11T11:45:31;5.00;99.90
3940;DHT22;1984;48.312;9.244;2024-01-11T11:47:57;4.90;99.90
3940;DHT22;1984;48.312;9.244;2024-01-11T11:50:23;4.90;99.90
3940;DHT22;1984;48.312;9.244;2024-01-11T11:52:55;4.60;99.90
3940;DHT22;1984;48.312;9.244;2024-01-11T11:55:24;4.30;99.90
3940;DHT22;1984;48.312;9.244;2024-01-11T11:57:53;4.20;99.90
3940;DHT22;1984;48.312;9.244;2024-01-11T12:00:20;3.90;99.90
3940;DHT22;1984;48.312;9.244;2024-01-11T12:02:47;3.90;99.90
3940;DHT22;1984;48.312;9.244;2024-01-11T12:05:13;4.10;99.90
3940;DHT22;1984;48.312;9.244;2024-01-11T12:07:38;3.90;99.90
3940;DHT22;1984;48.312;9.244;2024-01-11T12:10:05;3.50;99.90
3940;DHT22;1984;48.312;9.244;2024-01-11T12:12:32;3.20;99.90
3940;DHT22;1984;48.312;9.244;2024-01-11T12:14:59;2.90;99.90
3940;DHT22;1984;48.312;9.244;2024-01-11T12:17:24;2.90;99.90
3940;DHT22;1984;48.312;9.244;2024-01-11T12:19:52;2.80;99.90
3940;DHT22;1984;48.312;9.244;2024-01-11T12:22:17;2.80;99.90
3940;DHT22;1984;48.312;9.244;2024-01-11T12:24:45;2.70;99.90
3940;DHT22;1984;48.312;9.244;2024-01-11T12:27:11;2.50;99.90
3940;DHT22;1984;48.312;9.244;2024-01-11T12:29:38;2.40;99.90
3940;DHT22;1984;48.312;9.244;2024-01-11T12:32:04;2.30;99.90
3940;DHT22;1984;48.312;9.244;2024-01-11T12:34:30;2.40;99.90
3940;DHT22;1984;48.312;9.244;2024-01-11T12:36:56;2.20;99.90
3940;DHT22;1984;48.312;9.244;2024-01-11T12:39:26;2.20;99.90
3940;DHT22;1984;48.312;9.244;2024-01-11T12:41:54;2.20;99.90
3940;DHT22;1984;48.312;9.244;2024-01-11T12:44:20;2.30;99.90
3940;DHT22;1984;48.312;9.244;2024-01-11T12:46:47;2.30;99.90
3940;DHT22;1984;48.312;9.244;2024-01-11T12:49:13;2.40;99.90
3940;DHT22;1984;48.312;9.244;2024-01-11T12:51:39;2.30;99.90
3940;DHT22;1984;48.312;9.244;2024-01-11T12:54:11;2.30;99.90
3940;DHT22;1984;48.312;9.244;2024-01-11T12:56:41;2.40;99.90
3940;DHT22;1984;48.312;9.244;2024-01-11T12:59:08;2.50;99.90
3940;DHT22;1984;48.312;9.244;2024-01-11T13:01:35;2.50;99.90
3940;DHT22;1984;48.312;9.244;2024-01-11T13:04:01;2.40;99.90
3940;DHT22;1984;48.312;9.244;2024-01-11T13:06:29;2.30;99.90
3940;DHT22;1984;48.312;9.244;2024-01-11T13:08:55;2.20;99.90
3940;DHT22;1984;48.312;9.244;2024-01-11T13:11:20;2.20;99.90
3940;DHT22;1984;48.312;9.244;2024-01-11T13:13:46;2.30;99.90
3940;DHT22;1984;48.312;9.244;2024-01-11T13:16:12;2.30;99.90
3940;DHT22;1984;48.312;9.244;2024-01-11T13:18:40;2.40;99.90
3940;DHT22;1984;48.312;9.244;2024-01-11T13:21:05;2.30;99.90
3940;DHT22;1984;48.312;9.244;2024-01-11T13:23:34;2.30;99.90
3940;DHT22;1984;48.312;9.244;2024-01-11T13:26:00;2.30;99.90
3940;DHT22;1984;48.312;9.244;2024-01-11T13:28:27;2.30;99.90
3940;DHT22;1984;48.312;9.244;2024-01-11T13:30:52;2.30;99.90
3940;DHT22;1984;48.312;9.244;2024-01-11T13:33:18;2.20;99.90
3940;DHT22;1984;48.312;9.244;2024-01-11T13:35:45;2.20;99.90
3940;DHT22;1984;48.312;9.244;2024-01-11T13:38:11;2.30;99.90
3940;DHT22;1984;48.312;9.244;2024-01-11T13:40:36;2.20;99.90
3940;DHT22;1984;48.312;9.244;2024-01-11T13:43:03;2.30;99.90
3940;DHT22;1984;48.312;9.244;2024-01-11T13:45:29;2.20;99.90
3940;DHT22;1984;48.312;9.244;2024-01-11T13:47:59;2.20;99.90
3940;DHT22;1984;48.312;9.244;2024-01-11T13:50:25;2.30;99.90
3940;DHT22;1984;48.312;9.244;2024-01-11T13:52:50;2.30;99.90
3940;DHT22;1984;48.312;9.244;2024-01-11T13:55:16;2.30;99.90
3940;DHT22;1984;48.312;9.244;2024-01-11T13:57:43;2.30;99.90
3940;DHT22;1984;48.312;9.244;2024-01-11T14:00:10;2.20;99.90
3940;DHT22;1984;48.312;9.244;2024-01-11T14:02:37;2.20;99.90
3940;DHT22;1984;48.312;9.244;2024-01-11T14:05:03;2.20;99.90
3940;DHT22;1984;48.312;9.244;2024-01-11T14:07:29;2.10;99.90
3940;DHT22;1984;48.312;9.244;2024-01-11T14:09:55;2.10;99.90
3940;DHT22;1984;48.312;9.244;2024-01-11T14:12:21;2.10;99.90
3940;DHT22;1984;48.312;9.244;2024-01-11T14:14:47;2.10;99.90
3940;DHT22;1984;48.312;9.244;2024-01-11T14:17:12;2.10;99.90
3940;DHT22;1984;48.312;9.244;2024-01-11T14:19:38;2.10;99.90
3940;DHT22;1984;48.312;9.244;2024-01-11T14:22:03;2.10;99.90
3940;DHT22;1984;48.312;9.244;2024-01-11T14:24:29;2.10;99.90
3940;DHT22;1984;48.312;9.244;2024-01-11T14:26:54;2.10;99.90
3940;DHT22;1984;48.312;9.244;2024-01-11T14:29:20;2.20;99.90
3940;DHT22;1984;48.312;9.244;2024-01-11T14:31:46;2.20;99.90
3940;DHT22;1984;48.312;9.244;2024-01-11T14:34:11;2.20;99.90
3940;DHT22;1984;48.312;9.244;2024-01-11T14:36:37;2.30;99.90
3940;DHT22;1984;48.312;9.244;2024-01-11T14:39:03;2.30;99.90
3940;DHT22;1984;48.312;9.244;2024-01-11T14:41:33;2.30;99.90
3940;DHT22;1984;48.312;9.244;2024-01-11T14:43:59;2.30;99.90
3940;DHT22;1984;48.312;9.244;2024-01-11T14:46:25;2.30;99.90
3940;DHT22;1984;48.312;9.244;2024-01-11T14:48:51;2.20;99.90
3940;DHT22;1984;48.312;9.244;2024-01-11T14:51:17;2.20;99.90
3940;DHT22;1984;48.312;9.244;2024-01-11T14:53:42;2.20;99.90
3940;DHT22;1984;48.312;9.244;2024-01-11T14:56:08;2.10;99.90
3940;DHT22;1984;48.312;9.244;2024-01-11T14:58:33;2.00;99.90
3940;DHT22;1984;48.312;9.244;2024-01-11T15:00:59;2.00;99.90
3940;DHT22;1984;48.312;9.244;2024-01-11T15:03:24;1.90;99.90
3940;DHT22;1984;48.312;9.244;2024-01-11T15:05:52;1.90;99.90
3940;DHT22;1984;48.312;9.244;2024-01-11T15:08:18;1.90;99.90
3940;DHT22;1984;48.312;9.244;2024-01-11T15:10:44;1.80;99.90
3940;DHT22;1984;48.312;9.244;2024-01-11T15:13:09;1.60;99.90
3940;DHT22;1984;48.312;9.244;2024-01-11T15:15:36;1.50;99.90
3940;DHT22;1984;48.312;9.244;2024-01-11T15:18:01;1.40;99.90
3940;DHT22;1984;48.312;9.244;2024-01-11T15:20:27;1.40;99.90
3940;DHT22;1984;48.312;9.244;2024-01-11T15:22:53;1.40;99.90
3940;DHT22;1984;48.312;9.244;2024-01-11T15:25:18;1.30;99.90
3940;DHT22;1984;48.312;9.244;2024-01-11T15:27:44;1.30;99.90
3940;DHT22;1984;48.312;9.244;2024-01-11T15:30:10;1.20;99.90
3940;DHT22;1984;48.312;9.244;2024-01-11T15:32:37;1.10;99.90
3940;DHT22;1984;48.312;9.244;2024-01-11T15:35:02;1.10;99.90
3940;DHT22;1984;48.312;9.244;2024-01-11T15:37:29;1.00;99.90
3940;DHT22;1984;48.312;9.244;2024-01-11T15:39:57;0.90;99.90
3940;DHT22;1984;48.312;9.244;2024-01-11T15:42:23;0.90;99.90
3940;DHT22;1984;48.312;9.244;2024-01-11T15:44:49;0.80;99.90
3940;DHT22;1984;48.312;9.244;2024-01-11T15:47:15;0.70;99.90
3940;DHT22;1984;48.312;9.244;2024-01-11T15:49:40;0.70;99.90
3940;DHT22;1984;48.312;9.244;2024-01-11T15:52:06;0.60;99.90
3940;DHT22;1984;48.312;9.244;2024-01-11T15:54:31;0.50;99.90
3940;DHT22;1984;48.312;9.244;2024-01-11T15:56:57;0.40;99.90
3940;DHT22;1984;48.312;9.244;2024-01-11T15:59:23;0.30;99.90